createdAt,value
2017-06-04T00:00:14.544Z,0
2017-06-04T00:00:55.188Z,0
2017-06-04T00:01:36.770Z,0
2017-06-04T00:02:17.325Z,0
2017-06-04T00:02:58.021Z,0
2017-06-04T00:03:38.590Z,0
2017-06-04T00:04:19.146Z,0
2017-06-04T00:04:59.727Z,0
2017-06-04T00:05:40.335Z,0
2017-06-04T00:06:20.890Z,0
2017-06-04T00:07:01.430Z,0
2017-06-04T00:07:42.070Z,0
2017-06-04T00:08:22.603Z,0
2017-06-04T00:09:03.237Z,0
2017-06-04T00:09:43.836Z,0
2017-06-04T00:10:24.370Z,0
2017-06-04T00:11:04.982Z,0
2017-06-04T00:11:45.584Z,0
2017-06-04T00:12:26.136Z,0
2017-06-04T00:13:06.787Z,0
2017-06-04T00:13:47.440Z,0
2017-06-04T00:14:29.014Z,0
2017-06-04T00:15:09.574Z,0
2017-06-04T00:15:50.219Z,0
2017-06-04T00:16:31.786Z,0
2017-06-04T00:17:12.342Z,0
2017-06-04T00:17:52.891Z,0
2017-06-04T00:18:34.171Z,0
2017-06-04T00:19:14.830Z,0
2017-06-04T00:19:55.363Z,0
2017-06-04T00:20:35.916Z,0
2017-06-04T00:21:16.563Z,0
2017-06-04T00:21:57.115Z,0
2017-06-04T00:22:37.740Z,0
2017-06-04T00:23:18.325Z,0
2017-06-04T00:23:58.903Z,0
2017-06-04T00:24:39.486Z,0
2017-06-04T00:25:21.102Z,0
2017-06-04T00:26:01.626Z,0
2017-06-04T00:26:42.265Z,0
2017-06-04T00:27:22.859Z,0
2017-06-04T00:28:03.514Z,0
2017-06-04T00:28:44.058Z,0
2017-06-04T00:29:24.608Z,0
2017-06-04T00:30:05.257Z,0
2017-06-04T00:30:46.016Z,0
2017-06-04T00:31:26.585Z,0
2017-06-04T00:32:09.179Z,0
2017-06-04T00:32:49.853Z,0
2017-06-04T00:33:30.474Z,0
2017-06-04T00:34:11.227Z,0
2017-06-04T00:34:51.884Z,0
2017-06-04T00:35:32.435Z,0
2017-06-04T00:36:13.094Z,0
2017-06-04T00:36:53.739Z,0
2017-06-04T00:37:34.262Z,0
2017-06-04T00:38:14.872Z,0
2017-06-04T00:38:56.492Z,0
2017-06-04T00:39:37.082Z,0
2017-06-04T00:40:17.653Z,0
2017-06-04T00:40:58.289Z,0
2017-06-04T00:41:38.904Z,0
2017-06-04T00:42:19.472Z,0
2017-06-04T00:42:59.987Z,0
2017-06-04T00:43:40.585Z,0
2017-06-04T00:44:21.192Z,0
2017-06-04T00:45:01.779Z,0
2017-06-04T00:45:42.320Z,0
2017-06-04T00:46:22.891Z,0
2017-06-04T00:47:03.484Z,0
2017-06-04T00:47:44.083Z,0
2017-06-04T00:48:24.603Z,0
2017-06-04T00:49:05.229Z,0
2017-06-04T00:49:45.779Z,0
2017-06-04T00:50:26.384Z,0
2017-06-04T00:51:06.936Z,0
2017-06-04T00:51:47.515Z,0
2017-06-04T00:52:28.091Z,0
2017-06-04T00:53:08.687Z,0
2017-06-04T00:53:49.218Z,0
2017-06-04T00:54:29.806Z,0
2017-06-04T00:55:10.404Z,0
2017-06-04T00:55:50.997Z,0
2017-06-04T00:56:31.545Z,0
2017-06-04T00:57:12.128Z,0
2017-06-04T00:57:52.695Z,0
2017-06-04T00:58:33.299Z,0
2017-06-04T00:59:13.912Z,0
2017-06-04T00:59:54.465Z,0
2017-06-04T01:00:35.064Z,0
2017-06-04T01:01:15.667Z,0
2017-06-04T01:01:56.223Z,0
2017-06-04T01:02:36.815Z,0
2017-06-04T01:03:17.357Z,0
2017-06-04T01:03:57.990Z,0
2017-06-04T01:04:39.609Z,0
2017-06-04T01:05:20.132Z,0
2017-06-04T01:06:00.768Z,0
2017-06-04T01:06:41.338Z,0
2017-06-04T01:07:21.869Z,0
2017-06-04T01:08:02.507Z,0
2017-06-04T01:08:43.105Z,0
2017-06-04T01:09:23.646Z,0
2017-06-04T01:10:05.225Z,0
2017-06-04T01:10:45.878Z,0
2017-06-04T01:11:26.540Z,0
2017-06-04T01:12:07.066Z,0
2017-06-04T01:12:47.668Z,0
2017-06-04T01:13:28.257Z,0
2017-06-04T01:14:08.848Z,0
2017-06-04T01:14:49.378Z,0
2017-06-04T01:15:29.961Z,0
2017-06-04T01:16:10.547Z,0
2017-06-04T01:16:51.140Z,0
2017-06-04T01:17:31.692Z,0
2017-06-04T01:18:12.338Z,0
2017-06-04T01:18:52.997Z,0
2017-06-04T01:19:33.557Z,0
2017-06-04T01:20:14.200Z,0
2017-06-04T01:20:54.863Z,0
2017-06-04T01:21:35.503Z,0
2017-06-04T01:22:16.085Z,0
2017-06-04T01:22:56.722Z,0
2017-06-04T01:23:37.330Z,0
2017-06-04T01:24:17.917Z,0
2017-06-04T01:24:58.475Z,0
2017-06-04T01:25:39.032Z,0
2017-06-04T01:26:19.626Z,0
2017-06-04T01:27:00.227Z,0
2017-06-04T01:27:40.766Z,0
2017-06-04T01:28:21.328Z,0
2017-06-04T01:29:01.947Z,0
2017-06-04T01:29:42.527Z,0
2017-06-04T01:30:23.068Z,0
2017-06-04T01:31:03.656Z,0
2017-06-04T01:31:44.233Z,0
2017-06-04T01:32:24.839Z,0
2017-06-04T01:33:05.369Z,0
2017-06-04T01:33:45.951Z,0
2017-06-04T01:34:26.542Z,0
2017-06-04T01:35:07.130Z,0
2017-06-04T01:35:47.669Z,0
2017-06-04T01:36:28.240Z,0
2017-06-04T01:37:08.849Z,0
2017-06-04T01:37:49.443Z,0
2017-06-04T01:38:29.958Z,0
2017-06-04T01:39:10.569Z,0
2017-06-04T01:39:51.161Z,0
2017-06-04T01:40:31.734Z,0
2017-06-04T01:41:12.252Z,0
2017-06-04T01:41:52.867Z,0
2017-06-04T01:42:33.490Z,0
2017-06-04T01:43:14.025Z,0
2017-06-04T01:43:54.655Z,0
2017-06-04T01:44:37.957Z,0
2017-06-04T01:45:18.516Z,0
2017-06-04T01:45:59.145Z,0
2017-06-04T01:46:39.765Z,0
2017-06-04T01:47:20.275Z,0
2017-06-04T01:48:02.873Z,0
2017-06-04T01:48:44.498Z,0
2017-06-04T01:49:25.047Z,0
2017-06-04T01:50:05.599Z,0
2017-06-04T01:50:46.140Z,0
2017-06-04T01:51:26.698Z,0
2017-06-04T01:52:07.242Z,0
2017-06-04T01:52:47.791Z,0
2017-06-04T01:53:28.343Z,0
2017-06-04T01:54:08.995Z,0
2017-06-04T01:54:49.569Z,0
2017-06-04T01:55:30.201Z,0
2017-06-04T01:56:10.747Z,0
2017-06-04T01:56:51.295Z,0
2017-06-04T01:57:33.668Z,0
2017-06-04T01:58:14.230Z,0
2017-06-04T01:58:54.825Z,0
2017-06-04T01:59:35.484Z,0
2017-06-04T02:00:16.071Z,0
2017-06-04T02:00:56.612Z,0
2017-06-04T02:01:37.177Z,0
2017-06-04T02:02:17.818Z,0
2017-06-04T02:02:58.359Z,0
2017-06-04T02:03:38.975Z,0
2017-06-04T02:04:19.495Z,0
2017-06-04T02:05:00.123Z,0
2017-06-04T02:05:40.666Z,0
2017-06-04T02:06:21.225Z,0
2017-06-04T02:07:01.782Z,0
2017-06-04T02:07:42.318Z,0
2017-06-04T02:08:22.878Z,0
2017-06-04T02:09:03.419Z,0
2017-06-04T02:09:44.033Z,0
2017-06-04T02:10:24.577Z,0
2017-06-04T02:11:05.184Z,0
2017-06-04T02:11:45.720Z,0
2017-06-04T02:12:26.257Z,0
2017-06-04T02:13:06.883Z,0
2017-06-04T02:13:47.417Z,0
2017-06-04T02:14:28.040Z,0
2017-06-04T02:15:08.560Z,0
2017-06-04T02:15:49.253Z,0
2017-06-04T02:16:29.788Z,0
2017-06-04T02:17:10.409Z,0
2017-06-04T02:17:50.994Z,0
2017-06-04T02:18:32.568Z,0
2017-06-04T02:19:13.096Z,0
2017-06-04T02:19:53.634Z,0
2017-06-04T02:20:34.167Z,0
2017-06-04T02:21:15.798Z,0
2017-06-04T02:21:56.348Z,0
2017-06-04T02:22:36.889Z,0
2017-06-04T02:23:18.467Z,0
2017-06-04T02:23:59.017Z,0
2017-06-04T02:24:39.584Z,0
2017-06-04T02:25:20.120Z,0
2017-06-04T02:26:00.782Z,0
2017-06-04T02:26:41.310Z,0
2017-06-04T02:27:21.936Z,0
2017-06-04T02:28:02.489Z,0
2017-06-04T02:28:43.083Z,0
2017-06-04T02:29:23.634Z,0
2017-06-04T02:30:04.190Z,0
2017-06-04T02:30:45.760Z,0
2017-06-04T02:31:27.334Z,0
2017-06-04T02:32:07.884Z,0
2017-06-04T02:32:48.432Z,0
2017-06-04T02:33:28.980Z,0
2017-06-04T02:34:09.533Z,0
2017-06-04T02:34:50.082Z,0
2017-06-04T02:35:30.637Z,0
2017-06-04T02:36:11.183Z,0
2017-06-04T02:36:51.738Z,0
2017-06-04T02:37:32.284Z,0
2017-06-04T02:38:12.835Z,0
2017-06-04T02:38:53.389Z,0
2017-06-04T02:39:33.940Z,0
2017-06-04T02:40:14.491Z,0
2017-06-04T02:40:55.040Z,0
2017-06-04T02:41:36.616Z,0
2017-06-04T02:42:17.160Z,0
2017-06-04T02:42:57.711Z,0
2017-06-04T02:43:38.323Z,0
2017-06-04T02:44:18.918Z,0
2017-06-04T02:44:59.441Z,0
2017-06-04T02:45:41.007Z,0
2017-06-04T02:46:21.591Z,0
2017-06-04T02:47:02.101Z,0
2017-06-04T02:47:42.658Z,0
2017-06-04T02:48:23.242Z,0
2017-06-04T02:49:03.770Z,0
2017-06-04T02:49:45.327Z,0
2017-06-04T02:50:26.948Z,0
2017-06-04T02:51:07.470Z,0
2017-06-04T02:51:48.100Z,0
2017-06-04T02:52:28.701Z,0
2017-06-04T02:53:10.294Z,0
2017-06-04T02:53:51.031Z,0
2017-06-04T02:54:31.605Z,0
2017-06-04T02:55:12.235Z,0
2017-06-04T02:55:52.790Z,0
2017-06-04T02:56:33.337Z,0
2017-06-04T02:57:13.892Z,0
2017-06-04T02:57:54.462Z,0
2017-06-04T02:58:36.070Z,0
2017-06-04T02:59:16.666Z,0
2017-06-04T02:59:57.199Z,0
2017-06-04T03:00:37.828Z,0
2017-06-04T03:01:18.430Z,0
2017-06-04T03:01:58.946Z,0
2017-06-04T03:02:39.575Z,0
2017-06-04T03:03:20.132Z,0
2017-06-04T03:04:01.701Z,0
2017-06-04T03:04:42.251Z,0
2017-06-04T03:05:23.835Z,0
2017-06-04T03:06:05.423Z,0
2017-06-04T03:06:46.977Z,0
2017-06-04T03:07:27.524Z,0
2017-06-04T03:08:08.109Z,0
2017-06-04T03:08:48.774Z,0
2017-06-04T03:09:29.386Z,4
2017-06-04T03:10:09.933Z,4
2017-06-04T03:10:50.523Z,4
2017-06-04T03:11:37.693Z,4
2017-06-04T03:12:18.235Z,4
2017-06-04T03:13:04.472Z,4
2017-06-04T03:13:46.042Z,4
2017-06-04T03:14:38.471Z,4
2017-06-04T03:15:30.898Z,4
2017-06-04T03:16:11.456Z,4
2017-06-04T03:16:57.939Z,4
2017-06-04T03:17:38.466Z,4
2017-06-04T03:18:20.018Z,4
2017-06-04T03:19:13.424Z,4
2017-06-04T03:19:53.984Z,8
2017-06-04T03:20:39.196Z,4
2017-06-04T03:21:21.838Z,8
2017-06-04T03:22:03.370Z,8
2017-06-04T03:22:45.013Z,4
2017-06-04T03:23:27.586Z,8
2017-06-04T03:24:08.140Z,8
2017-06-04T03:25:01.629Z,8
2017-06-04T03:25:43.280Z,8
2017-06-04T03:26:23.783Z,8
2017-06-04T06:37:15.117Z,728
2017-06-04T06:37:56.661Z,732
2017-06-04T06:38:44.216Z,732
2017-06-04T06:39:24.769Z,736
2017-06-04T06:40:09.981Z,740
2017-06-04T06:40:56.234Z,744
2017-06-04T06:41:36.781Z,748
2017-06-04T06:42:17.348Z,748
2017-06-04T06:42:59.968Z,756
2017-06-04T06:43:42.611Z,764
2017-06-04T06:44:23.137Z,776
2017-06-04T06:45:14.585Z,788
2017-06-04T06:45:55.193Z,792
2017-06-04T06:46:37.821Z,792
2017-06-04T06:47:18.379Z,796
2017-06-04T06:48:05.613Z,800
2017-06-04T06:48:52.797Z,800
2017-06-04T06:49:33.346Z,800
2017-06-04T06:50:13.958Z,800
2017-06-04T06:50:54.549Z,800
2017-06-04T06:51:35.063Z,804
2017-06-04T06:52:15.707Z,804
2017-06-04T06:52:57.316Z,804
2017-06-04T06:53:39.918Z,800
2017-06-04T06:54:20.461Z,800
2017-06-04T06:55:15.772Z,804
2017-06-04T06:55:57.338Z,804
2017-06-04T06:56:37.856Z,808
2017-06-04T06:57:18.438Z,800
2017-06-04T06:58:03.806Z,800
2017-06-04T06:58:44.348Z,804
2017-06-04T06:59:26.947Z,808
2017-06-04T07:00:07.485Z,816
2017-06-04T07:00:52.576Z,816
2017-06-04T07:01:34.460Z,820
2017-06-04T07:02:16.035Z,828
2017-06-04T07:02:57.618Z,832
2017-06-04T07:03:39.218Z,824
2017-06-04T07:04:19.747Z,816
2017-06-04T07:05:00.323Z,808
2017-06-04T07:05:40.866Z,800
2017-06-04T07:06:32.244Z,800
2017-06-04T07:07:12.875Z,808
2017-06-04T07:07:54.473Z,828
2017-06-04T07:08:45.757Z,844
2017-06-04T07:09:27.326Z,840
2017-06-04T07:10:13.824Z,832
2017-06-04T07:10:56.417Z,824
2017-06-04T07:11:36.966Z,816
2017-06-04T07:12:17.721Z,804
2017-06-04T07:12:58.295Z,788
2017-06-04T07:13:38.942Z,768
2017-06-04T07:14:19.579Z,756
2017-06-04T07:15:00.235Z,748
2017-06-04T07:15:41.830Z,744
2017-06-04T07:16:27.269Z,740
2017-06-04T07:17:08.881Z,736
2017-06-04T07:17:51.571Z,752
2017-06-04T07:18:32.072Z,764
2017-06-04T07:19:17.594Z,764
2017-06-04T07:19:58.169Z,772
2017-06-04T07:20:39.796Z,792
2017-06-04T07:21:20.357Z,788
2017-06-04T07:22:00.908Z,796
2017-06-04T07:22:42.519Z,820
2017-06-04T07:23:26.155Z,832
2017-06-04T07:24:06.780Z,844
2017-06-04T07:24:48.393Z,836
2017-06-04T07:25:28.987Z,832
2017-06-04T07:26:09.542Z,836
2017-06-04T07:26:50.062Z,820
2017-06-04T07:27:30.671Z,808
2017-06-04T07:28:11.202Z,808
2017-06-04T07:28:53.847Z,824
2017-06-04T07:29:34.440Z,836
2017-06-04T07:30:21.783Z,844
2017-06-04T07:31:02.330Z,848
2017-06-04T07:31:42.950Z,860
2017-06-04T07:32:23.496Z,876
2017-06-04T07:33:04.961Z,884
2017-06-04T07:33:57.501Z,876
2017-06-04T07:34:38.162Z,880
2017-06-04T07:35:18.824Z,908
2017-06-04T07:36:03.979Z,896
2017-06-04T07:36:45.539Z,860
2017-06-04T07:37:28.152Z,808
2017-06-04T07:38:08.807Z,816
2017-06-04T07:39:03.986Z,864
2017-06-04T07:39:44.542Z,864
2017-06-04T07:40:26.519Z,852
2017-06-04T07:41:07.111Z,824
2017-06-04T07:41:48.688Z,800
2017-06-04T07:42:36.304Z,788
2017-06-04T07:43:22.805Z,780
2017-06-04T07:44:03.477Z,760
2017-06-04T07:44:46.409Z,748
2017-06-04T07:45:27.009Z,736
2017-06-04T07:46:08.317Z,696
2017-06-04T07:46:55.907Z,660
2017-06-04T07:47:36.546Z,648
2017-06-04T07:48:17.087Z,648
2017-06-04T07:48:57.840Z,672
2017-06-04T07:49:38.465Z,672
2017-06-04T07:50:29.804Z,596
2017-06-04T07:51:10.402Z,588
2017-06-04T07:51:55.719Z,576
2017-06-04T07:52:42.989Z,576
2017-06-04T07:53:28.286Z,576
2017-06-04T07:54:15.799Z,600
2017-06-04T07:55:01.312Z,640
2017-06-04T07:55:41.921Z,728
2017-06-04T07:56:22.480Z,872
2017-06-04T07:57:03.032Z,904
2017-06-04T07:57:56.287Z,792
2017-06-04T07:58:36.920Z,816
2017-06-04T07:59:18.496Z,816
2017-06-04T08:00:01.107Z,808
2017-06-04T08:00:41.679Z,772
2017-06-04T08:01:24.241Z,760
2017-06-04T08:02:04.795Z,880
2017-06-04T08:02:47.407Z,952
2017-06-04T08:03:27.921Z,940
2017-06-04T08:04:08.504Z,892
2017-06-04T08:04:49.126Z,892
2017-06-04T08:05:31.771Z,884
2017-06-04T08:06:12.303Z,864
2017-06-04T08:06:57.584Z,976
2017-06-04T08:07:39.214Z,1084
2017-06-04T08:08:20.807Z,1112
2017-06-04T08:09:12.322Z,768
2017-06-04T08:09:52.967Z,620
2017-06-04T08:10:33.518Z,540
2017-06-04T08:11:16.126Z,572
2017-06-04T08:12:02.306Z,596
2017-06-04T08:12:44.008Z,664
2017-06-04T08:13:24.640Z,680
2017-06-04T08:14:07.250Z,828
2017-06-04T08:14:48.826Z,924
2017-06-04T08:15:30.380Z,996
2017-06-04T08:16:11.950Z,1004
2017-06-04T08:16:53.588Z,1052
2017-06-04T08:17:38.796Z,1060
2017-06-04T08:18:21.470Z,976
2017-06-04T08:19:03.070Z,928
2017-06-04T08:19:48.329Z,900
2017-06-04T08:20:30.006Z,740
2017-06-04T08:21:15.262Z,816
2017-06-04T08:21:56.467Z,684
2017-06-04T08:22:39.252Z,660
2017-06-04T08:23:19.801Z,724
2017-06-04T08:24:00.359Z,820
2017-06-04T08:24:46.474Z,784
2017-06-04T08:25:27.039Z,732
2017-06-04T08:26:08.759Z,784
2017-06-04T08:26:49.280Z,896
2017-06-04T08:27:29.874Z,816
2017-06-04T08:28:10.455Z,768
2017-06-04T08:28:51.052Z,804
2017-06-04T08:29:31.572Z,924
2017-06-04T08:30:12.334Z,968
2017-06-04T08:30:52.988Z,1148
2017-06-04T08:31:33.667Z,1072
2017-06-04T08:32:14.225Z,1116
2017-06-04T08:32:54.774Z,1024
2017-06-04T08:33:35.425Z,944
2017-06-04T08:34:16.104Z,688
2017-06-04T08:34:56.717Z,612
2017-06-04T08:35:37.406Z,732
2017-06-04T08:36:19.995Z,572
2017-06-04T08:37:00.630Z,580
2017-06-04T08:37:41.181Z,652
2017-06-04T08:38:21.735Z,764
2017-06-04T08:39:08.141Z,836
2017-06-04T08:39:48.753Z,848
2017-06-04T08:40:30.372Z,1112
2017-06-04T08:41:11.013Z,1088
2017-06-04T08:41:52.602Z,908
2017-06-04T08:42:38.009Z,876
2017-06-04T08:43:29.361Z,796
2017-06-04T08:44:12.044Z,1216
2017-06-04T08:44:53.625Z,1160
2017-06-04T08:45:35.304Z,1112
2017-06-04T08:46:17.897Z,912
2017-06-04T08:46:58.441Z,1084
2017-06-04T08:47:43.810Z,1256
2017-06-04T08:48:24.587Z,1008
2017-06-04T08:49:05.238Z,1112
2017-06-04T08:49:47.915Z,1032
2017-06-04T08:50:28.585Z,924
2017-06-04T08:51:09.116Z,1084
2017-06-04T08:51:49.736Z,1024
2017-06-04T08:52:30.368Z,1096
2017-06-04T08:53:10.941Z,1192
2017-06-04T08:53:51.457Z,912
2017-06-04T08:54:32.077Z,788
2017-06-04T08:55:12.611Z,852
2017-06-04T08:55:55.247Z,868
2017-06-04T08:56:35.879Z,916
2017-06-04T08:57:16.429Z,1060
2017-06-04T08:57:57.084Z,1144
2017-06-04T08:58:37.637Z,1060
2017-06-04T08:59:18.193Z,908
2017-06-04T08:59:58.860Z,804
2017-06-04T09:00:39.498Z,832
2017-06-04T09:01:20.141Z,616
2017-06-04T09:02:00.699Z,556
2017-06-04T09:02:42.261Z,560
2017-06-04T09:03:22.832Z,548
2017-06-04T09:04:04.517Z,656
2017-06-04T09:04:45.150Z,660
2017-06-04T09:05:25.822Z,712
2017-06-04T09:06:06.362Z,664
2017-06-04T09:06:46.959Z,576
2017-06-04T09:07:27.485Z,552
2017-06-04T09:08:08.107Z,796
2017-06-04T09:08:48.631Z,568
2017-06-04T09:09:29.205Z,640
2017-06-04T09:10:09.737Z,912
2017-06-04T09:10:50.308Z,696
2017-06-04T09:11:30.843Z,760
2017-06-04T09:12:11.366Z,748
2017-06-04T09:12:51.986Z,704
2017-06-04T09:13:32.568Z,716
2017-06-04T09:14:13.118Z,616
2017-06-04T09:14:53.784Z,612
2017-06-04T09:15:35.408Z,548
2017-06-04T09:16:15.939Z,528
2017-06-04T09:16:56.615Z,452
2017-06-04T09:17:37.162Z,432
2017-06-04T09:18:17.715Z,516
2017-06-04T09:18:58.391Z,416
2017-06-04T09:19:38.941Z,420
2017-06-04T09:20:19.590Z,480
2017-06-04T09:21:00.237Z,828
2017-06-04T09:21:40.997Z,636
2017-06-04T09:22:21.596Z,532
2017-06-04T09:23:02.154Z,856
2017-06-04T09:23:43.097Z,864
2017-06-04T09:24:23.674Z,884
2017-06-04T09:25:04.388Z,844
2017-06-04T09:25:44.945Z,828
2017-06-04T09:26:26.982Z,832
2017-06-04T09:27:07.513Z,840
2017-06-04T09:27:48.071Z,848
2017-06-04T09:28:28.622Z,828
2017-06-04T09:29:10.288Z,816
2017-06-04T09:29:50.820Z,796
2017-06-04T09:30:31.448Z,1836
2017-06-04T09:31:12.167Z,7536
2017-06-04T09:31:52.794Z,7572
2017-06-04T09:32:33.352Z,8104
2017-06-04T09:33:13.940Z,8188
2017-06-04T09:33:54.472Z,7108
2017-06-04T09:34:35.139Z,7032
2017-06-04T09:35:15.813Z,7396
2017-06-04T09:35:56.410Z,7480
2017-06-04T09:36:37.071Z,8560
2017-06-04T09:37:17.764Z,8784
2017-06-04T09:37:58.368Z,8892
2017-06-04T09:38:38.936Z,8948
2017-06-04T09:39:19.572Z,8916
2017-06-04T09:40:00.124Z,8796
2017-06-04T09:40:40.783Z,8696
2017-06-04T09:41:21.425Z,8140
2017-06-04T09:42:01.984Z,8588
2017-06-04T09:42:42.611Z,8500
2017-06-04T09:43:23.190Z,8348
2017-06-04T09:44:04.888Z,8056
2017-06-04T09:44:45.512Z,7976
2017-06-04T09:45:26.164Z,8080
2017-06-04T09:46:06.843Z,8472
2017-06-04T09:46:49.423Z,9004
2017-06-04T09:47:29.975Z,9456
2017-06-04T09:48:11.539Z,9644
2017-06-04T09:48:52.102Z,9432
2017-06-04T09:49:32.716Z,9176
2017-06-04T09:50:13.442Z,8948
2017-06-04T09:50:54.060Z,8972
2017-06-04T09:51:34.638Z,9148
2017-06-04T09:52:15.364Z,9500
2017-06-04T09:52:56.135Z,9644
2017-06-04T09:53:37.693Z,9564
2017-06-04T09:54:19.367Z,9300
2017-06-04T09:54:59.934Z,9140
2017-06-04T09:55:40.570Z,9200
2017-06-04T09:56:22.154Z,9156
2017-06-04T09:57:02.791Z,9008
2017-06-04T09:57:43.343Z,8852
2017-06-04T09:58:23.904Z,8668
2017-06-04T09:59:04.446Z,8264
2017-06-04T09:59:45.067Z,8144
2017-06-04T10:00:25.958Z,8340
2017-06-04T10:01:06.516Z,8592
2017-06-04T10:01:47.117Z,8656
2017-06-04T10:02:27.675Z,8704
2017-06-04T10:03:09.283Z,8804
2017-06-04T10:03:49.837Z,8704
2017-06-04T10:04:31.478Z,8440
2017-06-04T10:05:12.020Z,8056
2017-06-04T10:05:52.615Z,7540
2017-06-04T10:06:33.129Z,7208
2017-06-04T10:07:13.715Z,7028
2017-06-04T10:07:54.298Z,816
2017-06-04T10:08:34.854Z,776
2017-06-04T10:09:15.414Z,768
2017-06-04T10:09:56.024Z,760
2017-06-04T10:10:36.568Z,756
2017-06-04T10:11:17.176Z,748
2017-06-04T10:11:57.777Z,744
2017-06-04T10:12:38.311Z,728
2017-06-04T10:13:18.900Z,724
2017-06-04T10:13:59.500Z,728
2017-06-04T10:14:40.029Z,708
2017-06-04T10:15:20.660Z,564
2017-06-04T10:16:01.200Z,740
2017-06-04T10:16:41.799Z,740
2017-06-04T10:17:22.323Z,740
2017-06-04T10:18:02.933Z,736
2017-06-04T10:18:43.449Z,732
2017-06-04T10:19:24.200Z,732
2017-06-04T10:20:04.726Z,740
2017-06-04T10:20:45.435Z,740
2017-06-04T10:21:26.618Z,732
2017-06-04T10:22:07.152Z,724
2017-06-04T10:22:47.765Z,720
2017-06-04T10:23:28.392Z,716
2017-06-04T10:24:08.978Z,716
2017-06-04T10:24:50.123Z,704
2017-06-04T10:25:30.744Z,712
2017-06-04T10:26:11.332Z,616
2017-06-04T10:26:52.971Z,412
2017-06-04T10:27:33.647Z,660
2017-06-04T10:28:14.176Z,652
2017-06-04T10:28:54.819Z,720
2017-06-04T10:29:35.473Z,640
2017-06-04T10:30:16.121Z,632
2017-06-04T10:30:56.690Z,364
2017-06-04T10:31:37.326Z,376
2017-06-04T10:32:18.902Z,384
2017-06-04T10:33:03.278Z,724
2017-06-04T10:33:43.936Z,732
2017-06-04T10:34:24.721Z,720
2017-06-04T10:35:05.311Z,740
2017-06-04T10:35:51.008Z,528
2017-06-04T10:36:32.064Z,528
2017-06-04T10:37:12.740Z,700
2017-06-04T10:37:53.383Z,728
2017-06-04T10:38:34.800Z,740
2017-06-04T10:39:15.390Z,740
2017-06-04T10:39:57.719Z,748
2017-06-04T10:40:39.403Z,736
2017-06-04T10:41:21.667Z,652
2017-06-04T10:42:02.437Z,836
2017-06-04T10:42:43.089Z,860
2017-06-04T10:43:23.736Z,860
2017-06-04T10:44:04.318Z,796
2017-06-04T10:44:45.037Z,656
2017-06-04T10:45:25.700Z,520
2017-06-04T10:46:07.043Z,516
2017-06-04T10:46:49.754Z,604
2017-06-04T10:47:30.502Z,672
2017-06-04T10:48:11.079Z,1032
2017-06-04T10:48:52.807Z,980
2017-06-04T10:49:33.487Z,1052
2017-06-04T10:50:14.240Z,1180
2017-06-04T10:50:55.098Z,1208
2017-06-04T10:51:36.058Z,1376
2017-06-04T10:52:16.819Z,1640
2017-06-04T10:52:57.544Z,1812
2017-06-04T10:53:40.613Z,1592
2017-06-04T10:54:22.290Z,1636
2017-06-04T10:55:03.011Z,1944
2017-06-04T10:55:43.702Z,1960
2017-06-04T10:56:24.298Z,1928
2017-06-04T10:57:05.921Z,1912
2017-06-04T10:57:47.020Z,1788
2017-06-04T10:58:28.612Z,1660
2017-06-04T10:59:09.202Z,1264
2017-06-04T10:59:50.818Z,1168
2017-06-04T11:00:31.391Z,1184
2017-06-04T11:01:11.998Z,1164
2017-06-04T11:01:53.631Z,1196
2017-06-04T11:02:34.225Z,1232
2017-06-04T11:03:15.641Z,1236
2017-06-04T11:03:56.224Z,1196
2017-06-04T11:04:37.143Z,1112
2017-06-04T11:05:17.674Z,1084
2017-06-04T11:05:58.323Z,1088
2017-06-04T11:06:38.892Z,1148
2017-06-04T11:07:19.521Z,1140
2017-06-04T11:08:00.062Z,1124
2017-06-04T11:08:40.614Z,1156
2017-06-04T11:09:21.254Z,1160
2017-06-04T11:10:01.809Z,1148
2017-06-04T11:10:42.439Z,1172
2017-06-04T11:11:23.011Z,1216
2017-06-04T11:12:03.580Z,1356
2017-06-04T11:12:44.179Z,1392
2017-06-04T11:13:24.755Z,1388
2017-06-04T11:14:05.305Z,1348
2017-06-04T11:14:46.885Z,1428
2017-06-04T11:15:27.433Z,1532
2017-06-04T11:16:07.991Z,1532
2017-06-04T11:16:48.546Z,1472
2017-06-04T11:17:31.132Z,1308
2017-06-04T11:18:11.786Z,1192
2017-06-04T11:18:52.360Z,1212
2017-06-04T11:19:33.154Z,1236
2017-06-04T11:20:13.750Z,1308
2017-06-04T11:20:54.297Z,1408
2017-06-04T11:21:34.847Z,1596
2017-06-04T11:22:15.395Z,1472
2017-06-04T11:22:56.981Z,1356
2017-06-04T11:23:37.556Z,1232
2017-06-04T11:24:18.184Z,1068
2017-06-04T11:24:58.736Z,916
2017-06-04T11:25:39.305Z,756
2017-06-04T11:26:19.947Z,748
2017-06-04T11:27:00.579Z,768
2017-06-04T11:27:41.151Z,876
2017-06-04T11:28:21.696Z,1008
2017-06-04T11:29:02.294Z,1156
2017-06-04T11:29:42.812Z,1244
2017-06-04T11:30:23.406Z,1308
2017-06-04T11:31:04.019Z,1384
2017-06-04T11:31:45.566Z,1468
2017-06-04T11:32:26.109Z,1512
2017-06-04T11:33:07.701Z,1512
2017-06-04T11:33:48.238Z,1504
2017-06-04T11:34:28.891Z,1472
2017-06-04T11:35:09.464Z,1460
2017-06-04T11:35:49.995Z,1448
2017-06-04T11:36:30.658Z,1456
2017-06-04T11:37:11.187Z,1512
2017-06-04T11:37:51.823Z,1532
2017-06-04T11:38:32.425Z,1632
2017-06-04T11:39:13.055Z,1428
2017-06-04T11:39:53.605Z,1396
2017-06-04T11:40:34.258Z,1368
2017-06-04T11:41:14.806Z,1408
2017-06-04T11:41:57.424Z,1400
2017-06-04T11:42:38.055Z,1416
2017-06-04T11:43:18.606Z,1320
2017-06-04T11:43:59.156Z,1128
2017-06-04T11:44:40.766Z,980
2017-06-04T11:45:21.355Z,884
2017-06-04T11:46:01.860Z,816
2017-06-04T11:46:42.386Z,716
2017-06-04T11:47:24.015Z,636
2017-06-04T11:48:04.576Z,616
2017-06-04T11:48:46.195Z,620
2017-06-04T11:49:26.739Z,632
2017-06-04T11:50:07.285Z,628
2017-06-04T11:50:47.833Z,628
2017-06-04T11:51:28.499Z,640
2017-06-04T11:52:09.017Z,932
2017-06-04T11:52:49.593Z,904
2017-06-04T11:53:30.146Z,880
2017-06-04T11:54:12.750Z,836
2017-06-04T11:54:53.317Z,836
2017-06-04T11:55:33.956Z,832
2017-06-04T11:56:14.508Z,940
2017-06-04T11:56:55.057Z,1056
2017-06-04T11:57:35.611Z,1216
2017-06-04T11:58:16.136Z,1244
2017-06-04T11:58:56.720Z,1300
2017-06-04T11:59:37.357Z,1348
2017-06-04T12:00:17.881Z,1412
2017-06-04T12:00:58.420Z,1464
2017-06-04T12:01:40.037Z,1640
2017-06-04T12:02:21.628Z,1452
2017-06-04T12:03:02.258Z,1484
2017-06-04T12:03:42.874Z,1520
2017-06-04T12:04:23.492Z,1552
2017-06-04T12:05:06.121Z,1552
2017-06-04T12:05:46.645Z,1544
2017-06-04T12:06:27.175Z,1524
2017-06-04T12:07:07.800Z,1516
2017-06-04T12:07:48.380Z,1528
2017-06-04T12:08:28.938Z,1524
2017-06-04T12:09:09.525Z,1544
2017-06-04T12:09:51.157Z,1544
2017-06-04T12:10:31.687Z,1568
2017-06-04T12:11:12.318Z,1624
2017-06-04T12:11:52.879Z,1656
2017-06-04T12:12:33.450Z,1640
2017-06-04T12:13:14.050Z,1628
2017-06-04T12:13:54.658Z,1776
2017-06-04T12:14:35.189Z,1640
2017-06-04T12:15:15.751Z,1644
2017-06-04T12:15:56.296Z,1556
2017-06-04T12:16:36.859Z,1508
2017-06-04T12:17:17.507Z,1320
2017-06-04T12:17:58.183Z,1404
2017-06-04T12:18:38.824Z,1492
2017-06-04T12:19:19.348Z,1504
2017-06-04T12:20:01.938Z,1432
2017-06-04T12:20:42.456Z,1280
2017-06-04T12:21:23.019Z,1224
2017-06-04T12:22:03.534Z,1244
2017-06-04T12:22:44.164Z,1268
2017-06-04T12:23:24.717Z,1192
2017-06-04T12:24:05.270Z,1188
2017-06-04T12:24:46.863Z,1148
2017-06-04T12:25:27.515Z,1168
2017-06-04T12:26:08.147Z,1204
2017-06-04T12:26:48.674Z,1068
2017-06-04T12:27:29.349Z,1088
2017-06-04T12:28:09.959Z,1240
2017-06-04T12:28:50.507Z,1140
2017-06-04T12:29:31.029Z,1096
2017-06-04T12:30:11.594Z,1216
2017-06-04T12:30:52.252Z,1136
2017-06-04T12:31:32.785Z,956
2017-06-04T12:32:14.375Z,920
2017-06-04T12:32:54.935Z,1056
2017-06-04T12:33:36.524Z,1256
2017-06-04T12:34:17.126Z,1224
2017-06-04T12:34:57.763Z,1180
2017-06-04T12:35:38.298Z,1100
2017-06-04T12:36:18.933Z,1040
2017-06-04T12:37:04.100Z,1072
2017-06-04T12:37:44.660Z,1172
2017-06-04T12:38:26.327Z,1304
2017-06-04T12:39:06.960Z,1336
2017-06-04T12:39:47.506Z,1324
2017-06-04T12:40:28.048Z,1312
2017-06-04T12:41:09.601Z,1244
2017-06-04T12:41:50.233Z,1172
2017-06-04T12:42:30.751Z,1136
2017-06-04T12:43:12.400Z,1148
2017-06-04T12:43:52.995Z,1152
2017-06-04T12:44:33.512Z,1164
2017-06-04T12:45:15.137Z,1100
2017-06-04T12:45:55.765Z,1008
2017-06-04T12:46:36.335Z,912
2017-06-04T12:47:16.966Z,904